Time;durP1;ratioP1;P1;durP2;ratioP2;P2;SDS_P1;SDS_P2;PMS_P1;PMS_P2;Temp;Humidity;BMP_temperature;BMP_pressure;BME280_temperature;BME280_humidity;BME280_pressure;Samples;Min_cycle;Max_cycle;Signal;HPM_P1;HPM_P2
2023/01/25 00:01:24;;;;;;;14.70;9.77;;;1.60;99.90;;;;;;5022654;28;20036;-80
2023/01/25 00:03:50;;;;;;;17.48;11.38;;;1.90;99.90;;;;;;4991574;28;20078;-80
2023/01/25 00:06:15;;;;;;;16.65;11.15;;;2.00;99.90;;;;;;5011825;28;20159;-80
2023/01/25 00:08:41;;;;;;;16.50;11.38;;;1.80;99.90;;;;;;5011523;28;20037;-80
2023/01/25 00:11:06;;;;;;;19.60;12.75;;;2.00;99.90;;;;;;5023221;28;20041;-80
2023/01/25 00:13:32;;;;;;;23.30;16.73;;;1.90;99.90;;;;;;4993268;28;20057;-80
2023/01/25 00:16:01;;;;;;;21.48;13.88;;;1.70;99.90;;;;;;4994378;28;20067;-81
2023/01/25 00:18:27;;;;;;;19.23;12.40;;;1.60;99.90;;;;;;5007476;28;20029;-80
2023/01/25 00:20:53;;;;;;;19.08;12.82;;;1.70;99.90;;;;;;5004802;28;20040;-80
2023/01/25 00:23:18;;;;;;;18.10;12.40;;;1.80;99.90;;;;;;4996865;28;20384;-80
2023/01/25 00:25:44;;;;;;;23.35;15.70;;;1.70;99.90;;;;;;4984507;28;20025;-80
2023/01/25 00:28:09;;;;;;;20.75;13.98;;;1.50;99.90;;;;;;5013257;28;20675;-80
2023/01/25 00:30:35;;;;;;;24.67;16.00;;;1.50;99.90;;;;;;5003392;28;20074;-80
2023/01/25 00:33:16;;;;;;;23.42;16.05;;;1.50;99.90;;;;;;5011043;28;20048;-81
2023/01/25 00:35:43;;;;;;;25.02;17.92;;;1.40;99.90;;;;;;5044270;28;20412;-80
2023/01/25 00:38:32;;;;;;;22.85;16.42;;;1.40;99.90;;;;;;4995047;28;20068;-80
2023/01/25 00:40:58;;;;;;;21.98;15.05;;;1.30;99.90;;;;;;5028791;28;20025;-80
2023/01/25 00:43:23;;;;;;;23.48;16.60;;;1.30;99.90;;;;;;5012760;28;20513;-80
2023/01/25 00:45:49;;;;;;;20.85;15.25;;;1.30;99.90;;;;;;4994369;28;20488;-80
2023/01/25 00:48:16;;;;;;;25.10;15.55;;;1.30;99.90;;;;;;4994795;28;20045;-81
2023/01/25 00:50:41;;;;;;;24.88;16.52;;;1.30;99.90;;;;;;4996392;28;20025;-80
2023/01/25 00:53:07;;;;;;;22.13;15.63;;;1.30;99.90;;;;;;5013117;28;20052;-81
2023/01/25 00:55:32;;;;;;;24.63;17.15;;;1.30;99.90;;;;;;4995776;28;20029;-80
2023/01/25 00:57:58;;;;;;;22.02;14.15;;;1.30;99.90;;;;;;4993886;28;20029;-80
2023/01/25 01:00:23;;;;;;;19.40;12.43;;;1.30;99.90;;;;;;5030150;28;20405;-81
2023/01/25 01:02:49;;;;;;;23.38;17.02;;;1.40;99.90;;;;;;5011317;28;20652;-80
2023/01/25 01:05:14;;;;;;;21.55;15.55;;;1.30;99.90;;;;;;4996283;28;20107;-81
2023/01/25 01:07:40;;;;;;;18.35;12.65;;;1.30;99.90;;;;;;5027371;28;20060;-80
2023/01/25 01:10:06;;;;;;;14.52;10.45;;;1.30;99.90;;;;;;5028537;28;20405;-80
2023/01/25 01:12:32;;;;;;;23.30;15.70;;;1.40;99.90;;;;;;5011958;28;20029;-80
2023/01/25 01:14:57;;;;;;;22.30;14.68;;;1.40;99.90;;;;;;5012531;28;20388;-80
2023/01/25 01:17:23;;;;;;;21.23;14.57;;;1.40;99.90;;;;;;5012236;28;20040;-80
2023/01/25 01:19:49;;;;;;;21.30;14.77;;;1.30;99.90;;;;;;4994546;28;20586;-80
2023/01/25 01:22:14;;;;;;;21.55;14.48;;;1.30;99.90;;;;;;5024999;28;20071;-81
2023/01/25 01:24:41;;;;;;;17.98;12.93;;;1.30;99.90;;;;;;5026950;28;20032;-81
2023/01/25 01:27:06;;;;;;;23.65;15.68;;;1.30;99.90;;;;;;5005604;28;20037;-80
2023/01/25 01:29:32;;;;;;;23.77;15.13;;;1.40;99.90;;;;;;5011324;28;22312;-80
2023/01/25 01:31:57;;;;;;;19.83;11.80;;;1.50;99.90;;;;;;5046145;28;20029;-80
2023/01/25 01:34:23;;;;;;;15.48;9.93;;;1.40;99.90;;;;;;5011408;28;20337;-80
2023/01/25 01:36:48;;;;;;;30.08;19.17;;;1.60;99.90;;;;;;5024431;28;20071;-81
2023/01/25 01:39:14;;;;;;;26.58;15.77;;;1.70;99.90;;;;;;5009374;28;20083;-80
2023/01/25 01:41:40;;;;;;;21.73;13.68;;;1.60;99.90;;;;;;5007426;28;20112;-81
2023/01/25 01:44:08;;;;;;;23.13;14.52;;;1.50;99.90;;;;;;5011469;28;20047;-81
2023/01/25 01:46:36;;;;;;;28.15;17.50;;;1.40;99.90;;;;;;4995030;28;20033;-80
2023/01/25 01:49:26;;;;;;;26.77;16.95;;;1.40;99.90;;;;;;5024254;28;20086;-80
2023/01/25 01:52:09;;;;;;;27.90;16.90;;;1.30;99.90;;;;;;4999658;28;20052;-80
2023/01/25 01:54:41;;;;;;;28.05;19.10;;;1.30;99.90;;;;;;5002570;28;20041;-80
2023/01/25 01:57:13;;;;;;;26.95;16.90;;;1.30;99.90;;;;;;4989399;28;20557;-80
2023/01/25 01:59:48;;;;;;;28.75;18.27;;;1.20;99.90;;;;;;5026885;28;20036;-80
2023/01/25 02:02:14;;;;;;;30.17;20.15;;;1.30;99.90;;;;;;5025503;28;20495;-80
2023/01/25 02:04:40;;;;;;;23.83;15.07;;;1.20;99.90;;;;;;5010252;28;20072;-81
2023/01/25 02:07:17;;;;;;;25.92;17.00;;;1.20;99.90;;;;;;5014734;28;20061;-80
2023/01/25 02:09:42;;;;;;;27.92;18.00;;;1.20;99.90;;;;;;4992613;28;20062;-80
2023/01/25 02:12:08;;;;;;;23.55;15.18;;;1.20;99.90;;;;;;5011400;28;20449;-81
2023/01/25 02:14:34;;;;;;;17.73;12.30;;;1.30;99.90;;;;;;5010611;28;20049;-81
2023/01/25 02:16:59;;;;;;;28.20;17.17;;;1.60;99.90;;;;;;5010726;28;20116;-80
2023/01/25 02:20:00;;;;;;;29.33;18.67;;;1.50;99.90;;;;;;4992360;28;20033;-80
2023/01/25 02:22:53;;;;;;;28.58;18.23;;;1.40;99.90;;;;;;4990058;28;20025;-80
2023/01/25 02:25:18;;;;;;;27.08;17.90;;;1.30;99.90;;;;;;5007479;28;20045;-81
2023/01/25 02:27:52;;;;;;;22.92;14.82;;;1.20;99.90;;;;;;5006647;28;20052;-81
2023/01/25 02:30:18;;;;;;;27.17;18.13;;;1.20;99.90;;;;;;5009145;28;20029;-80
2023/01/25 02:32:43;;;;;;;32.72;20.02;;;1.20;99.90;;;;;;4991046;28;20032;-80
2023/01/25 02:35:23;;;;;;;26.58;17.60;;;1.20;99.90;;;;;;5011444;28;20029;-80
2023/01/25 02:37:49;;;;;;;33.28;18.67;;;1.20;99.90;;;;;;4987682;28;20091;-81
2023/01/25 02:40:16;;;;;;;30.30;18.90;;;1.10;99.90;;;;;;4995505;28;20053;-81
2023/01/25 02:42:43;;;;;;;32.88;18.13;;;1.10;99.90;;;;;;5008225;28;20027;-81
2023/01/25 02:45:10;;;;;;;33.08;18.77;;;1.20;99.90;;;;;;4995012;28;20438;-81
2023/01/25 02:47:36;;;;;;;24.95;15.13;;;1.20;99.90;;;;;;4994796;28;20026;-80
2023/01/25 02:50:02;;;;;;;30.65;16.67;;;1.10;99.90;;;;;;5011414;28;20025;-80
2023/01/25 02:52:27;;;;;;;29.20;17.42;;;1.30;99.90;;;;;;5008619;28;20040;-81
2023/01/25 02:54:53;;;;;;;31.15;18.13;;;1.40;99.90;;;;;;5007401;28;20033;-80
2023/01/25 02:57:18;;;;;;;25.70;14.80;;;1.30;99.90;;;;;;5010221;28;20127;-80
2023/01/25 02:59:44;;;;;;;21.23;12.75;;;1.30;99.90;;;;;;5005499;28;20026;-81
2023/01/25 03:02:09;;;;;;;29.40;16.48;;;1.30;99.90;;;;;;5004480;28;20030;-80
2023/01/25 03:04:35;;;;;;;31.90;18.45;;;1.30;99.90;;;;;;5009553;28;20056;-81
2023/01/25 03:07:00;;;;;;;26.92;15.57;;;1.20;99.90;;;;;;4994866;28;20404;-80
2023/01/25 03:09:26;;;;;;;30.67;18.05;;;1.10;99.90;;;;;;5009851;28;20451;-80
2023/01/25 03:11:52;;;;;;;20.60;13.02;;;1.10;99.90;;;;;;5012032;28;20025;-80
2023/01/25 03:14:17;;;;;;;25.15;14.13;;;1.20;99.90;;;;;;5010020;28;20131;-80
2023/01/25 03:16:43;;;;;;;23.50;14.38;;;1.10;99.90;;;;;;5004791;28;20127;-80
2023/01/25 03:19:09;;;;;;;29.20;18.05;;;1.10;99.90;;;;;;5013110;28;20029;-80
2023/01/25 03:21:35;;;;;;;26.67;16.05;;;1.10;99.90;;;;;;5005070;28;20548;-80
2023/01/25 03:24:01;;;;;;;24.13;14.50;;;1.00;99.90;;;;;;5009558;28;20040;-80
2023/01/25 03:26:27;;;;;;;29.92;15.70;;;1.00;99.90;;;;;;5009196;28;20072;-80
2023/01/25 03:28:52;;;;;;;32.72;19.13;;;1.10;99.90;;;;;;5009735;28;20488;-80
2023/01/25 03:31:18;;;;;;;33.17;17.83;;;1.00;99.90;;;;;;5021744;28;20036;-80
2023/01/25 03:33:43;;;;;;;29.42;17.85;;;1.00;99.90;;;;;;5008549;28;20041;-82
2023/01/25 03:36:09;;;;;;;22.75;13.05;;;1.00;99.90;;;;;;4988577;28;20153;-81
2023/01/25 03:38:35;;;;;;;21.42;12.43;;;1.00;99.90;;;;;;5007364;28;20036;-80
2023/01/25 03:41:01;;;;;;;22.95;12.80;;;1.00;99.90;;;;;;4995169;28;20087;-80
2023/01/25 03:43:26;;;;;;;33.80;16.45;;;1.20;99.90;;;;;;4992933;28;20119;-80
2023/01/25 03:45:57;;;;;;;29.70;17.23;;;1.10;99.90;;;;;;4991566;28;20060;-81
2023/01/25 03:48:23;;;;;;;24.05;13.57;;;1.10;99.90;;;;;;5006713;28;20049;-81
2023/01/25 03:50:52;;;;;;;26.85;15.40;;;1.10;99.90;;;;;;5010318;28;20060;-81
2023/01/25 03:53:39;;;;;;;22.40;12.18;;;1.10;99.90;;;;;;5025831;28;20392;-80
2023/01/25 03:56:07;;;;;;;34.38;17.88;;;1.30;99.90;;;;;;5013349;28;20029;-80
2023/01/25 03:58:33;;;;;;;24.67;13.38;;;1.10;99.90;;;;;;5009768;28;20177;-80
2023/01/25 04:00:59;;;;;;;32.58;18.80;;;1.10;99.90;;;;;;5025541;28;20037;-81
2023/01/25 04:03:25;;;;;;;35.28;18.02;;;1.00;99.90;;;;;;5006602;28;20537;-80
2023/01/25 04:05:51;;;;;;;33.50;17.80;;;1.00;99.90;;;;;;4993885;28;20028;-80
2023/01/25 04:08:17;;;;;;;19.65;10.93;;;0.90;99.90;;;;;;5007639;28;20083;-81
2023/01/25 04:10:42;;;;;;;28.50;14.43;;;1.10;99.90;;;;;;4993459;28;20029;-80
2023/01/25 04:13:08;;;;;;;34.00;18.88;;;1.20;99.90;;;;;;5004820;28;20044;-80
2023/01/25 04:15:34;;;;;;;33.13;16.98;;;1.10;99.90;;;;;;5006109;28;20067;-80
2023/01/25 04:17:59;;;;;;;31.40;16.13;;;0.90;99.90;;;;;;4989516;28;20078;-80
2023/01/25 04:20:25;;;;;;;26.77;15.25;;;0.90;99.90;;;;;;4991522;28;20147;-80
2023/01/25 04:22:50;;;;;;;35.55;19.33;;;0.90;99.90;;;;;;5021724;28;20603;-80
2023/01/25 04:25:16;;;;;;;32.33;16.73;;;0.80;99.90;;;;;;5008248;28;20111;-80
2023/01/25 04:27:41;;;;;;;32.40;16.52;;;0.90;99.90;;;;;;4992512;28;20033;-81
2023/01/25 04:30:08;;;;;;;32.28;18.35;;;0.80;99.90;;;;;;4980370;28;20459;-80
2023/01/25 04:32:36;;;;;;;35.03;18.23;;;0.80;99.90;;;;;;5010136;28;20057;-80
2023/01/25 04:35:02;;;;;;;32.33;17.27;;;0.80;99.90;;;;;;4992845;28;20501;-81
2023/01/25 04:37:27;;;;;;;31.85;15.57;;;0.80;99.90;;;;;;4992953;28;20106;-80
2023/01/25 04:39:53;;;;;;;32.10;16.70;;;0.80;99.90;;;;;;5007732;28;20021;-80
2023/01/25 04:42:18;;;;;;;32.50;16.73;;;0.80;99.90;;;;;;5026471;28;20122;-81
2023/01/25 04:44:44;;;;;;;36.35;17.80;;;1.00;99.90;;;;;;5013363;28;20025;-80
2023/01/25 04:47:10;;;;;;;28.60;15.82;;;0.90;99.90;;;;;;5023289;28;20044;-81
2023/01/25 04:49:35;;;;;;;39.40;18.85;;;0.90;99.90;;;;;;4994088;28;20480;-80
2023/01/25 04:52:01;;;;;;;26.88;13.82;;;1.00;99.90;;;;;;4993764;28;20034;-81
2023/01/25 04:54:27;;;;;;;28.02;13.57;;;1.20;99.90;;;;;;5012081;28;20037;-81
2023/01/25 04:56:52;;;;;;;25.90;13.13;;;1.20;99.90;;;;;;4993426;28;20036;-80
2023/01/25 04:59:18;;;;;;;24.48;11.95;;;1.10;99.90;;;;;;5026576;28;20039;-80
2023/01/25 05:01:43;;;;;;;30.02;14.82;;;1.00;99.90;;;;;;5011152;28;20116;-81
2023/01/25 05:04:09;;;;;;;27.42;14.75;;;1.00;99.90;;;;;;5011798;28;20083;-82
2023/01/25 05:06:35;;;;;;;40.42;20.40;;;0.90;99.90;;;;;;5010530;28;20033;-81
2023/01/25 05:09:01;;;;;;;41.67;21.23;;;0.90;99.90;;;;;;5015360;28;20037;-80
2023/01/25 05:11:26;;;;;;;34.72;18.75;;;0.80;99.90;;;;;;5010204;28;20029;-81
2023/01/25 05:13:53;;;;;;;27.98;14.63;;;0.70;99.90;;;;;;5005425;28;20120;-80
2023/01/25 05:16:19;;;;;;;41.45;21.23;;;0.80;99.90;;;;;;5031405;28;20114;-81
2023/01/25 05:18:44;;;;;;;27.27;13.40;;;0.90;99.90;;;;;;5010741;28;20051;-80
2023/01/25 05:21:56;;;;;;;29.10;15.10;;;1.10;99.90;;;;;;5005984;28;20033;-80
2023/01/25 05:23:55;;;;;;;30.60;15.73;;;1.10;99.90;;;;;;5024248;28;20029;-80
2023/01/25 05:29:05;;;;;;;36.63;18.27;;;1.00;99.90;;;;;;5025136;28;20044;-81
2023/01/25 05:31:31;;;;;;;43.08;22.60;;;0.90;99.90;;;;;;4997325;28;20033;-80
2023/01/25 05:33:56;;;;;;;39.20;20.27;;;0.80;99.90;;;;;;5016179;28;20143;-80
2023/01/25 05:36:22;;;;;;;33.42;16.95;;;0.80;99.90;;;;;;4995462;28;20397;-80
2023/01/25 05:38:47;;;;;;;38.85;19.73;;;0.90;99.90;;;;;;4994306;28;20083;-81
2023/01/25 05:41:13;;;;;;;26.17;14.50;;;0.90;99.90;;;;;;5003524;28;20617;-79
2023/01/25 05:43:38;;;;;;;36.55;16.98;;;0.90;99.90;;;;;;5011227;28;20501;-80
2023/01/25 05:46:04;;;;;;;42.33;20.55;;;0.90;99.90;;;;;;5009526;28;20138;-81
2023/01/25 05:48:30;;;;;;;34.45;17.13;;;0.90;99.90;;;;;;4996133;28;20366;-80
2023/01/25 05:50:58;;;;;;;41.83;21.23;;;0.90;99.90;;;;;;5028296;28;20044;-80
2023/01/25 05:53:25;;;;;;;33.42;16.35;;;1.00;99.90;;;;;;5024671;28;20124;-80
2023/01/25 05:55:51;;;;;;;42.83;21.23;;;1.00;99.90;;;;;;5005794;28;20370;-80
2023/01/25 05:58:16;;;;;;;39.10;18.70;;;1.20;99.90;;;;;;5010762;28;20120;-80
2023/01/25 06:00:42;;;;;;;41.78;20.20;;;1.10;99.90;;;;;;4992146;28;20115;-80
2023/01/25 06:03:07;;;;;;;39.78;19.92;;;1.10;99.90;;;;;;5009936;28;20032;-80
2023/01/25 06:05:33;;;;;;;37.75;18.35;;;0.90;99.90;;;;;;4990616;28;20025;-80
2023/01/25 06:07:59;;;;;;;37.40;18.48;;;0.90;99.90;;;;;;5017563;28;20044;-80
2023/01/25 06:10:25;;;;;;;34.92;16.08;;;0.90;99.90;;;;;;4993788;28;20037;-80
2023/01/25 06:12:59;;;;;;;37.40;18.40;;;1.10;99.90;;;;;;5006087;28;20641;-80
2023/01/25 06:15:25;;;;;;;40.53;20.10;;;1.10;99.90;;;;;;5017998;28;20025;-80
2023/01/25 06:17:54;;;;;;;29.85;15.43;;;1.00;99.90;;;;;;4990406;28;20373;-80
2023/01/25 06:20:20;;;;;;;31.65;16.25;;;0.90;99.90;;;;;;5010802;28;20062;-80
2023/01/25 06:22:51;;;;;;;35.83;18.25;;;0.90;99.90;;;;;;4990679;28;20032;-80
2023/01/25 06:25:17;;;;;;;40.88;20.98;;;0.90;99.90;;;;;;5021055;28;20508;-80
2023/01/25 06:27:43;;;;;;;32.65;16.13;;;0.90;99.90;;;;;;5004410;28;20039;-80
2023/01/25 06:30:09;;;;;;;45.08;17.77;;;0.90;99.90;;;;;;5002139;28;20107;-80
2023/01/25 06:32:34;;;;;;;37.80;20.08;;;0.90;99.90;;;;;;5007639;28;20033;-80
2023/01/25 06:35:00;;;;;;;43.40;22.48;;;0.90;99.90;;;;;;5009073;28;20520;-81
2023/01/25 06:37:25;;;;;;;36.13;19.08;;;0.80;99.90;;;;;;5009764;28;20039;-80
2023/01/25 06:39:52;;;;;;;31.48;15.52;;;0.90;99.90;;;;;;5009897;28;20029;-80
2023/01/25 06:42:17;;;;;;;24.35;10.98;;;1.00;99.90;;;;;;5021781;28;20037;-80
2023/01/25 06:44:43;;;;;;;44.47;22.02;;;1.00;99.90;;;;;;5008832;28;20053;-80
2023/01/25 06:47:08;;;;;;;41.08;21.88;;;0.90;99.90;;;;;;5008875;28;20029;-80
2023/01/25 06:49:34;;;;;;;39.30;19.17;;;0.90;99.90;;;;;;4996681;28;20025;-80
2023/01/25 06:52:02;;;;;;;46.28;24.40;;;0.90;99.90;;;;;;4993882;28;20028;-80
2023/01/25 06:54:28;;;;;;;37.05;21.20;;;0.90;99.90;;;;;;4967420;28;20043;-79
2023/01/25 06:56:53;;;;;;;46.47;22.52;;;0.80;99.90;;;;;;5020793;28;20469;-79
2023/01/25 06:59:19;;;;;;;42.42;21.88;;;0.80;99.90;;;;;;5008410;28;20488;-80
2023/01/25 07:01:45;;;;;;;25.10;13.38;;;1.00;99.90;;;;;;4992338;28;20033;-79
2023/01/25 07:04:11;;;;;;;38.40;17.65;;;1.10;99.90;;;;;;5011223;28;20444;-80
2023/01/25 07:06:36;;;;;;;29.17;14.95;;;1.20;99.90;;;;;;5006630;28;20397;-80
2023/01/25 07:09:07;;;;;;;31.63;14.73;;;1.10;99.90;;;;;;5004768;28;20025;-79
2023/01/25 07:11:33;;;;;;;28.88;14.32;;;1.00;99.90;;;;;;5009919;28;20029;-80
2023/01/25 07:13:59;;;;;;;36.85;17.60;;;1.00;99.90;;;;;;4990877;28;20040;-79
2023/01/25 07:16:24;;;;;;;41.65;21.33;;;1.00;99.90;;;;;;5025436;28;20473;-80
2023/01/25 07:18:50;;;;;;;41.38;21.65;;;0.90;99.90;;;;;;5026893;28;20139;-79
2023/01/25 07:21:20;;;;;;;44.40;24.27;;;1.00;99.90;;;;;;5010809;28;20033;-80
2023/01/25 07:23:46;;;;;;;42.70;22.08;;;0.90;99.90;;;;;;5006763;28;20029;-80
2023/01/25 07:26:19;;;;;;;39.83;21.92;;;0.80;99.90;;;;;;4990689;28;20041;-80
2023/01/25 07:28:45;;;;;;;36.97;21.17;;;0.80;99.90;;;;;;5008579;28;20044;-80
2023/01/25 07:31:11;;;;;;;47.72;24.08;;;0.80;99.90;;;;;;5014351;28;20067;-80
2023/01/25 07:33:37;;;;;;;46.15;23.65;;;0.90;99.90;;;;;;5008263;28;20182;-79
2023/01/25 07:36:04;;;;;;;38.97;18.90;;;1.00;99.90;;;;;;5009330;28;20025;-79
2023/01/25 07:38:30;;;;;;;42.08;22.05;;;0.80;99.90;;;;;;4993643;28;20033;-79
2023/01/25 07:40:55;;;;;;;39.17;19.35;;;0.90;99.90;;;;;;5008373;28;20044;-79
2023/01/25 07:43:21;;;;;;;34.85;17.98;;;0.90;99.90;;;;;;5004345;28;20064;-80
2023/01/25 07:45:50;;;;;;;40.33;20.83;;;0.90;99.90;;;;;;5007677;28;20553;-80
2023/01/25 07:48:16;;;;;;;43.35;22.02;;;0.90;99.90;;;;;;5030093;28;20036;-80
2023/01/25 07:50:41;;;;;;;41.63;21.50;;;0.90;99.90;;;;;;5010166;28;20037;-79
2023/01/25 07:53:07;;;;;;;50.25;24.73;;;0.80;99.90;;;;;;5021391;28;20041;-79
2023/01/25 07:55:33;;;;;;;43.60;22.08;;;0.80;99.90;;;;;;5006829;28;20035;-79
2023/01/25 07:57:59;;;;;;;40.80;22.13;;;0.80;99.90;;;;;;5014046;28;20159;-79
2023/01/25 08:00:25;;;;;;;44.17;21.60;;;0.80;99.90;;;;;;5010008;28;20021;-79
2023/01/25 08:02:51;;;;;;;45.90;22.75;;;0.80;99.90;;;;;;5004510;28;20029;-78
2023/01/25 08:05:18;;;;;;;44.85;23.27;;;0.80;99.90;;;;;;5023058;28;20338;-79
2023/01/25 08:07:43;;;;;;;45.53;23.45;;;0.90;99.90;;;;;;4990555;28;20025;-79
2023/01/25 08:10:09;;;;;;;39.35;21.35;;;0.90;99.90;;;;;;5011109;28;20033;-80
2023/01/25 08:12:35;;;;;;;38.58;21.02;;;0.80;99.90;;;;;;5002401;28;20045;-79
2023/01/25 08:15:01;;;;;;;34.38;19.20;;;0.80;99.90;;;;;;5008723;28;20393;-79
2023/01/25 08:17:32;;;;;;;35.97;18.98;;;0.90;99.90;;;;;;5026806;28;20029;-79
2023/01/25 08:19:58;;;;;;;40.00;21.35;;;0.90;99.90;;;;;;5008826;28;20033;-79
2023/01/25 08:22:24;;;;;;;38.38;20.05;;;0.90;99.90;;;;;;5022117;28;20086;-78
2023/01/25 08:24:50;;;;;;;35.30;19.27;;;0.90;99.90;;;;;;5008880;28;20037;-79
2023/01/25 08:27:15;;;;;;;38.83;19.63;;;0.90;99.90;;;;;;5011856;28;20498;-78
2023/01/25 08:29:41;;;;;;;35.38;18.10;;;0.90;99.90;;;;;;5023544;28;20528;-79
2023/01/25 08:32:06;;;;;;;45.00;23.48;;;0.90;99.90;;;;;;5003985;28;20129;-79
2023/01/25 08:34:33;;;;;;;40.65;21.33;;;0.90;99.90;;;;;;4998994;28;20067;-79
2023/01/25 08:36:58;;;;;;;41.90;22.42;;;0.90;99.90;;;;;;5028339;28;20610;-79
2023/01/25 08:39:24;;;;;;;32.17;17.77;;;1.00;99.90;;;;;;5010976;28;20029;-79
2023/01/25 08:41:50;;;;;;;37.30;18.92;;;1.00;99.90;;;;;;5022291;28;20116;-80
2023/01/25 08:44:15;;;;;;;42.63;22.48;;;1.00;99.90;;;;;;5002199;28;20045;-79
2023/01/25 08:46:41;;;;;;;44.90;23.88;;;1.00;99.90;;;;;;5006205;28;20037;-80
2023/01/25 08:49:08;;;;;;;46.35;23.35;;;1.00;99.90;;;;;;4996639;28;20041;-79
2023/01/25 08:51:33;;;;;;;44.83;25.95;;;1.00;99.90;;;;;;5010998;28;20035;-79
2023/01/25 08:54:06;;;;;;;43.83;22.52;;;1.00;99.90;;;;;;5010526;28;20135;-79
2023/01/25 08:56:31;;;;;;;47.25;24.58;;;0.90;99.90;;;;;;5008855;28;20526;-79
2023/01/25 08:58:57;;;;;;;42.72;23.20;;;0.90;99.90;;;;;;5026275;28;20065;-79
2023/01/25 09:01:23;;;;;;;43.13;22.90;;;0.90;99.90;;;;;;4996964;28;20109;-79
2023/01/25 09:03:49;;;;;;;39.65;21.65;;;0.90;99.90;;;;;;5011985;28;20377;-79
2023/01/25 09:06:15;;;;;;;41.28;21.38;;;1.00;99.90;;;;;;5008161;28;20041;-79
2023/01/25 09:08:40;;;;;;;43.22;22.33;;;1.10;99.90;;;;;;4995622;28;20036;-79
2023/01/25 09:11:08;;;;;;;28.15;13.95;;;1.10;99.90;;;;;;5006029;28;20042;-79
2023/01/25 09:13:33;;;;;;;42.60;22.42;;;1.00;99.90;;;;;;5008244;28;20588;-79
2023/01/25 09:16:06;;;;;;;33.70;17.58;;;1.00;99.90;;;;;;5010560;28;20120;-79
2023/01/25 09:18:32;;;;;;;34.10;17.80;;;1.00;99.90;;;;;;5019727;28;20503;-79
2023/01/25 09:20:57;;;;;;;39.30;20.58;;;1.10;99.90;;;;;;5008017;28;20451;-79
2023/01/25 09:23:23;;;;;;;25.20;12.55;;;1.20;99.90;;;;;;5011292;28;20041;-79
2023/01/25 09:25:56;;;;;;;35.10;16.52;;;1.40;99.90;;;;;;5025748;28;20126;-80
2023/01/25 09:28:21;;;;;;;37.75;19.65;;;1.50;99.90;;;;;;5011453;28;20671;-79
2023/01/25 09:30:54;;;;;;;27.38;13.10;;;1.50;99.90;;;;;;5011456;28;20041;-78
2023/01/25 09:33:24;;;;;;;30.38;13.25;;;1.60;99.90;;;;;;5030921;28;20033;-79
2023/01/25 09:35:49;;;;;;;31.67;14.55;;;1.50;99.90;;;;;;5023936;28;20473;-78
2023/01/25 09:38:15;;;;;;;35.63;16.27;;;1.60;99.90;;;;;;5010397;28;20036;-79
2023/01/25 09:40:41;;;;;;;32.78;13.85;;;1.40;99.90;;;;;;5007404;28;20503;-78
2023/01/25 09:43:18;;;;;;;39.85;18.40;;;1.40;99.90;;;;;;5009221;28;20037;-80
2023/01/25 09:45:44;;;;;;;40.95;20.92;;;1.40;99.90;;;;;;5009058;28;20511;-79
2023/01/25 09:48:19;;;;;;;40.22;20.27;;;1.40;99.90;;;;;;5028571;28;20025;-79
2023/01/25 09:50:50;;;;;;;41.85;19.73;;;1.40;99.90;;;;;;5026332;28;20021;-79
2023/01/25 09:53:24;;;;;;;43.78;19.67;;;1.30;99.90;;;;;;5041481;28;20489;-79
2023/01/25 09:56:20;;;;;;;40.05;18.90;;;1.30;99.90;;;;;;5003549;28;20393;-79
2023/01/25 09:58:47;;;;;;;49.80;21.55;;;1.30;99.90;;;;;;5016724;28;20029;-79
2023/01/25 10:01:28;;;;;;;36.22;17.83;;;1.40;99.90;;;;;;5021770;28;20783;-89
2023/01/25 10:04:03;;;;;;;43.22;21.67;;;1.40;99.90;;;;;;5011629;28;20039;-87
2023/01/25 10:06:35;;;;;;;34.63;16.75;;;1.40;99.90;;;;;;5028007;28;20025;-89
2023/01/25 10:09:30;;;;;;;30.73;11.95;;;1.50;99.90;;;;;;5027877;28;20488;-90
2023/01/25 10:11:58;;;;;;;44.20;21.02;;;1.50;99.90;;;;;;5001010;28;20048;-87
2023/01/25 10:14:23;;;;;;;28.50;11.88;;;1.60;99.90;;;;;;5007634;28;20404;-86
2023/01/25 10:17:01;;;;;;;35.80;16.60;;;1.50;99.90;;;;;;5011943;28;20112;-88
2023/01/25 10:19:38;;;;;;;32.50;15.68;;;1.60;99.90;;;;;;5009287;28;20037;-88
2023/01/25 10:22:25;;;;;;;34.42;17.50;;;1.70;99.90;;;;;;5025384;28;20040;-88
2023/01/25 10:25:10;;;;;;;;;;;1.80;99.90;;;;;;4988145;28;20369;-89
2023/01/25 10:28:28;;;;;;;46.75;18.98;;;1.70;99.90;;;;;;5041555;28;19921;-88
2023/01/25 10:31:04;;;;;;;41.25;18.67;;;1.80;99.90;;;;;;5006473;28;20049;-86
2023/01/25 10:33:30;;;;;;;55.42;24.75;;;1.80;99.90;;;;;;5026511;28;20037;-88
2023/01/25 10:35:58;;;;;;;45.42;22.15;;;1.80;99.90;;;;;;5011823;28;20033;-87
2023/01/25 10:38:32;;;;;;;49.33;23.52;;;1.80;99.90;;;;;;4998617;28;20041;-88
2023/01/25 10:41:04;;;;;;;49.97;24.73;;;1.70;99.90;;;;;;5012321;28;20039;-86
2023/01/25 10:43:31;;;;;;;49.20;25.75;;;1.70;99.90;;;;;;5008537;28;20078;-89
2023/01/25 10:45:56;;;;;;;51.75;23.30;;;1.70;99.90;;;;;;4998851;28;20120;-89
2023/01/25 10:48:26;;;;;;;47.85;24.20;;;1.70;99.90;;;;;;5010300;28;20112;-89
2023/01/25 10:50:53;;;;;;;50.70;25.60;;;1.80;99.90;;;;;;5014301;28;20045;-87
2023/01/25 10:53:28;;;;;;;50.03;27.15;;;1.80;99.90;;;;;;5027225;28;21084;-89
2023/01/25 10:56:06;;;;;;;48.83;24.38;;;1.70;99.90;;;;;;5014498;28;20523;-85
2023/01/25 10:58:35;;;;;;;45.30;24.67;;;1.80;99.90;;;;;;5044534;28;20033;-89
2023/01/25 11:01:00;;;;;;;44.25;20.92;;;1.70;99.90;;;;;;5026360;28;20129;-88
2023/01/25 11:03:37;;;;;;;42.08;20.88;;;1.80;99.90;;;;;;5017608;28;20037;-90
2023/01/25 11:06:03;;;;;;;51.95;28.50;;;1.90;99.90;;;;;;5008114;28;20092;-89
2023/01/25 11:08:37;;;;;;;44.45;24.10;;;1.80;99.90;;;;;;5009293;28;20040;-86
2023/01/25 11:11:39;;;;;;;48.17;24.98;;;1.90;99.90;;;;;;5015229;28;20632;-89
2023/01/25 11:14:17;;;;;;;46.10;25.75;;;1.80;99.90;;;;;;4947350;28;20152;-86
2023/01/25 11:16:54;;;;;;;44.97;22.63;;;1.80;99.90;;;;;;4980214;28;20045;-90
2023/01/25 11:19:34;;;;;;;40.47;21.13;;;1.80;99.90;;;;;;5011383;28;20033;-85
2023/01/25 11:22:04;;;;;;;42.60;21.98;;;1.90;99.90;;;;;;5002747;28;20039;-88
2023/01/25 11:24:32;;;;;;;46.95;25.75;;;1.90;99.90;;;;;;5005261;28;20037;-88
2023/01/25 11:27:23;;;;;;;43.60;23.48;;;1.90;99.90;;;;;;5012953;28;20132;-90
2023/01/25 11:30:14;;;;;;;41.05;22.52;;;1.90;99.90;;;;;;5025259;28;20215;-86
2023/01/25 11:32:40;;;;;;;33.83;16.67;;;2.00;99.90;;;;;;5015644;28;20580;-89
2023/01/25 11:35:14;;;;;;;43.63;19.83;;;2.10;99.90;;;;;;5018147;28;20060;-88
2023/01/25 11:37:51;;;;;;;35.80;17.20;;;2.10;99.90;;;;;;5031546;28;20109;-89
2023/01/25 11:40:28;;;;;;;36.72;19.55;;;2.20;99.90;;;;;;4668699;28;9999945;-89
2023/01/25 11:43:26;;;;;;;42.97;23.02;;;2.20;99.90;;;;;;5020620;28;20568;-84
2023/01/25 11:46:01;;;;;;;51.75;27.05;;;2.20;99.90;;;;;;5038726;28;20363;-89
2023/01/25 11:48:34;;;;;;;45.95;25.20;;;2.20;99.90;;;;;;5038326;28;20111;-88
2023/01/25 11:51:05;;;;;;;48.97;24.90;;;2.20;99.90;;;;;;5023798;28;20072;-83
2023/01/25 11:53:42;;;;;;;51.00;25.80;;;2.20;99.90;;;;;;5028982;28;20051;-84
2023/01/25 11:56:30;;;;;;;53.67;26.77;;;2.20;99.90;;;;;;5052046;28;20044;-88
2023/01/25 11:59:04;;;;;;;49.58;26.05;;;2.20;99.90;;;;;;5002595;28;20101;-90
2023/01/25 12:01:50;;;;;;;51.33;27.70;;;2.20;99.90;;;;;;5017119;28;20166;-89
2023/01/25 12:04:28;;;;;;;;;;;2.20;99.90;;;;;;5025661;28;20036;-88
2023/01/25 12:07:04;;;;;;;49.60;24.63;;;2.30;99.90;;;;;;5050043;28;19916;-84
2023/01/25 12:09:35;;;;;;;35.33;16.02;;;2.40;99.90;;;;;;5021061;28;20029;-87
2023/01/25 12:12:12;;;;;;;44.38;19.77;;;2.30;99.90;;;;;;5033915;28;20105;-88
2023/01/25 12:15:06;;;;;;;46.42;21.83;;;2.40;99.90;;;;;;5028833;28;20511;-89
2023/01/25 12:17:45;;;;;;;46.83;24.02;;;2.50;99.90;;;;;;5044837;28;20033;-88
2023/01/25 12:20:25;;;;;;;34.70;13.90;;;2.40;99.90;;;;;;5017442;28;20389;-88
2023/01/25 12:23:06;;;;;;;46.13;23.25;;;2.40;99.90;;;;;;5046154;28;20492;-88
2023/01/25 12:25:44;;;;;;;52.88;26.38;;;2.30;99.90;;;;;;5047143;28;20079;-87
2023/01/25 12:28:29;;;;;;;55.70;27.02;;;2.40;99.90;;;;;;5049304;28;20106;-87
2023/01/25 12:30:59;;;;;;;54.08;27.08;;;2.40;99.90;;;;;;5019728;28;20032;-88
2023/01/25 12:33:27;;;;;;;40.65;19.58;;;2.40;99.90;;;;;;5031285;28;20426;-90
2023/01/25 12:36:09;;;;;;;58.00;28.23;;;2.40;99.90;;;;;;5032609;28;20021;-89
2023/01/25 12:38:57;;;;;;;51.90;25.60;;;2.40;99.90;;;;;;5018514;28;20029;-87
2023/01/25 12:41:44;;;;;;;52.90;26.20;;;2.40;99.90;;;;;;5014529;28;20065;-89
2023/01/25 12:44:20;;;;;;;55.83;28.33;;;2.40;99.90;;;;;;5040176;28;20579;-89
2023/01/25 12:46:54;;;;;;;50.80;21.05;;;2.40;99.90;;;;;;5027392;28;20484;-89
2023/01/25 12:49:25;;;;;;;53.08;25.90;;;2.40;99.90;;;;;;5029012;28;20083;-90
2023/01/25 12:51:50;;;;;;;50.10;25.02;;;2.50;99.90;;;;;;4996291;28;20025;-88